sensor_id;sensor_type;location;lat;lon;timestamp;temperature;humidity
46364;DHT22;32071;49.036;9.344;2022-10-16T00:00:57;15.00;99.90
46364;DHT22;32071;49.036;9.344;2022-10-16T00:03:23;15.00;99.90
46364;DHT22;32071;49.036;9.344;2022-10-16T00:05:48;15.00;99.90
46364;DHT22;32071;49.036;9.344;2022-10-16T00:08:14;15.10;99.90
46364;DHT22;32071;49.036;9.344;2022-10-16T00:10:40;15.00;99.90
46364;DHT22;32071;49.036;9.344;2022-10-16T00:13:07;15.10;99.90
46364;DHT22;32071;49.036;9.344;2022-10-16T00:15:34;15.10;99.90
46364;DHT22;32071;49.036;9.344;2022-10-16T00:18:02;15.10;99.90
46364;DHT22;32071;49.036;9.344;2022-10-16T00:20:27;15.20;99.90
46364;DHT22;32071;49.036;9.344;2022-10-16T00:22:53;15.20;99.90
46364;DHT22;32071;49.036;9.344;2022-10-16T00:25:19;15.20;99.90
46364;DHT22;32071;49.036;9.344;2022-10-16T00:27:44;15.20;99.90
46364;DHT22;32071;49.036;9.344;2022-10-16T00:30:10;15.20;99.90
46364;DHT22;32071;49.036;9.344;2022-10-16T00:32:36;15.20;99.90
46364;DHT22;32071;49.036;9.344;2022-10-16T00:35:01;15.10;99.90
46364;DHT22;32071;49.036;9.344;2022-10-16T00:37:29;15.10;99.90
46364;DHT22;32071;49.036;9.344;2022-10-16T00:39:54;15.10;99.90
46364;DHT22;32071;49.036;9.344;2022-10-16T00:42:20;15.10;99.90
46364;DHT22;32071;49.036;9.344;2022-10-16T00:44:55;15.10;99.90
46364;DHT22;32071;49.036;9.344;2022-10-16T00:47:37;15.10;99.90
46364;DHT22;32071;49.036;9.344;2022-10-16T00:50:16;15.10;99.90
46364;DHT22;32071;49.036;9.344;2022-10-16T00:52:47;15.20;99.90
46364;DHT22;32071;49.036;9.344;2022-10-16T00:55:14;15.20;99.90
46364;DHT22;32071;49.036;9.344;2022-10-16T00:57:39;15.30;99.90
46364;DHT22;32071;49.036;9.344;2022-10-16T01:00:09;15.30;99.90
46364;DHT22;32071;49.036;9.344;2022-10-16T01:02:35;15.30;99.90
46364;DHT22;32071;49.036;9.344;2022-10-16T01:05:01;15.30;99.90
46364;DHT22;32071;49.036;9.344;2022-10-16T01:10:30;15.30;99.90
46364;DHT22;32071;49.036;9.344;2022-10-16T01:13:15;15.30;99.90
46364;DHT22;32071;49.036;9.344;2022-10-16T01:15:47;15.30;99.90
46364;DHT22;32071;49.036;9.344;2022-10-16T01:18:16;15.30;99.90
46364;DHT22;32071;49.036;9.344;2022-10-16T01:23:32;15.20;99.90
46364;DHT22;32071;49.036;9.344;2022-10-16T01:29:02;15.20;99.90
46364;DHT22;32071;49.036;9.344;2022-10-16T01:31:32;15.20;99.90
46364;DHT22;32071;49.036;9.344;2022-10-16T01:34:03;15.20;99.90
46364;DHT22;32071;49.036;9.344;2022-10-16T01:36:40;15.30;99.90
46364;DHT22;32071;49.036;9.344;2022-10-16T01:39:09;15.40;99.90
46364;DHT22;32071;49.036;9.344;2022-10-16T01:41:43;15.40;99.90
46364;DHT22;32071;49.036;9.344;2022-10-16T01:44:20;15.40;99.90
46364;DHT22;32071;49.036;9.344;2022-10-16T01:46:49;15.40;99.90
46364;DHT22;32071;49.036;9.344;2022-10-16T01:49:16;15.50;99.90
46364;DHT22;32071;49.036;9.344;2022-10-16T01:51:45;15.60;99.90
46364;DHT22;32071;49.036;9.344;2022-10-16T01:54:13;15.80;99.90
46364;DHT22;32071;49.036;9.344;2022-10-16T01:56:41;15.90;99.90
46364;DHT22;32071;49.036;9.344;2022-10-16T01:59:12;16.00;99.90
46364;DHT22;32071;49.036;9.344;2022-10-16T02:01:42;16.00;99.90
46364;DHT22;32071;49.036;9.344;2022-10-16T02:06:57;16.00;99.90
46364;DHT22;32071;49.036;9.344;2022-10-16T02:09:23;16.10;99.90
46364;DHT22;32071;49.036;9.344;2022-10-16T02:11:50;16.10;99.90
46364;DHT22;32071;49.036;9.344;2022-10-16T02:14:17;16.00;99.90
46364;DHT22;32071;49.036;9.344;2022-10-16T02:16:45;16.00;99.90
46364;DHT22;32071;49.036;9.344;2022-10-16T02:19:16;15.90;99.90
46364;DHT22;32071;49.036;9.344;2022-10-16T02:22:02;15.90;99.90
46364;DHT22;32071;49.036;9.344;2022-10-16T02:24:44;15.80;99.90
46364;DHT22;32071;49.036;9.344;2022-10-16T02:29:46;15.70;99.90
46364;DHT22;32071;49.036;9.344;2022-10-16T02:32:18;15.70;99.90
46364;DHT22;32071;49.036;9.344;2022-10-16T02:34:46;15.70;99.90
46364;DHT22;32071;49.036;9.344;2022-10-16T02:37:13;15.70;99.90
46364;DHT22;32071;49.036;9.344;2022-10-16T02:39:40;15.60;99.90
46364;DHT22;32071;49.036;9.344;2022-10-16T02:42:11;15.60;99.90
46364;DHT22;32071;49.036;9.344;2022-10-16T02:44:37;15.60;99.90
46364;DHT22;32071;49.036;9.344;2022-10-16T02:47:02;15.60;99.90
46364;DHT22;32071;49.036;9.344;2022-10-16T02:49:28;15.60;99.90
46364;DHT22;32071;49.036;9.344;2022-10-16T02:51:53;15.50;99.90
46364;DHT22;32071;49.036;9.344;2022-10-16T02:54:19;15.50;99.90
46364;DHT22;32071;49.036;9.344;2022-10-16T02:56:44;15.40;99.90
46364;DHT22;32071;49.036;9.344;2022-10-16T02:59:10;15.40;99.90
46364;DHT22;32071;49.036;9.344;2022-10-16T03:01:35;15.40;99.90
46364;DHT22;32071;49.036;9.344;2022-10-16T03:04:01;15.40;99.90
46364;DHT22;32071;49.036;9.344;2022-10-16T03:06:27;15.40;99.90
46364;DHT22;32071;49.036;9.344;2022-10-16T03:08:52;15.40;99.90
46364;DHT22;32071;49.036;9.344;2022-10-16T03:11:18;15.40;99.90
46364;DHT22;32071;49.036;9.344;2022-10-16T03:13:43;15.30;99.90
46364;DHT22;32071;49.036;9.344;2022-10-16T03:16:09;15.30;99.90
46364;DHT22;32071;49.036;9.344;2022-10-16T03:18:34;15.30;99.90
46364;DHT22;32071;49.036;9.344;2022-10-16T03:21:00;15.30;99.90
46364;DHT22;32071;49.036;9.344;2022-10-16T03:23:25;15.30;99.90
46364;DHT22;32071;49.036;9.344;2022-10-16T03:25:51;15.20;99.90
46364;DHT22;32071;49.036;9.344;2022-10-16T03:28:16;15.30;99.90
46364;DHT22;32071;49.036;9.344;2022-10-16T03:30:43;15.20;99.90
46364;DHT22;32071;49.036;9.344;2022-10-16T03:33:09;15.20;99.90
46364;DHT22;32071;49.036;9.344;2022-10-16T03:35:34;15.10;99.90
46364;DHT22;32071;49.036;9.344;2022-10-16T03:38:00;15.10;99.90
46364;DHT22;32071;49.036;9.344;2022-10-16T03:40:25;15.00;99.90
46364;DHT22;32071;49.036;9.344;2022-10-16T03:42:51;15.00;99.90
46364;DHT22;32071;49.036;9.344;2022-10-16T03:45:16;15.00;99.90
46364;DHT22;32071;49.036;9.344;2022-10-16T03:47:42;14.90;99.90
46364;DHT22;32071;49.036;9.344;2022-10-16T03:50:08;14.90;99.90
46364;DHT22;32071;49.036;9.344;2022-10-16T03:52:34;14.80;99.90
46364;DHT22;32071;49.036;9.344;2022-10-16T03:54:59;14.80;99.90
46364;DHT22;32071;49.036;9.344;2022-10-16T03:57:25;14.80;99.90
46364;DHT22;32071;49.036;9.344;2022-10-16T03:59:50;14.80;99.90
46364;DHT22;32071;49.036;9.344;2022-10-16T04:02:16;14.80;99.90
46364;DHT22;32071;49.036;9.344;2022-10-16T04:04:42;14.70;99.90
46364;DHT22;32071;49.036;9.344;2022-10-16T04:07:07;14.70;99.90
46364;DHT22;32071;49.036;9.344;2022-10-16T04:09:33;14.60;99.90
46364;DHT22;32071;49.036;9.344;2022-10-16T04:11:58;14.60;99.90
46364;DHT22;32071;49.036;9.344;2022-10-16T04:14:24;14.60;99.90
46364;DHT22;32071;49.036;9.344;2022-10-16T04:16:49;14.60;99.90
46364;DHT22;32071;49.036;9.344;2022-10-16T04:19:15;14.60;99.90
46364;DHT22;32071;49.036;9.344;2022-10-16T04:21:41;14.60;99.90
46364;DHT22;32071;49.036;9.344;2022-10-16T04:24:06;14.60;99.90
46364;DHT22;32071;49.036;9.344;2022-10-16T04:26:32;14.60;99.90
46364;DHT22;32071;49.036;9.344;2022-10-16T04:28:58;14.60;99.90
46364;DHT22;32071;49.036;9.344;2022-10-16T04:31:23;14.60;99.90
46364;DHT22;32071;49.036;9.344;2022-10-16T04:33:49;14.60;99.90
46364;DHT22;32071;49.036;9.344;2022-10-16T04:36:15;14.60;99.90
46364;DHT22;32071;49.036;9.344;2022-10-16T04:38:40;14.60;99.90
46364;DHT22;32071;49.036;9.344;2022-10-16T04:41:06;14.60;99.90
46364;DHT22;32071;49.036;9.344;2022-10-16T04:43:33;14.60;99.90
46364;DHT22;32071;49.036;9.344;2022-10-16T04:45:59;14.60;99.90
46364;DHT22;32071;49.036;9.344;2022-10-16T04:48:24;14.60;99.90
46364;DHT22;32071;49.036;9.344;2022-10-16T04:50:50;14.60;99.90
46364;DHT22;32071;49.036;9.344;2022-10-16T04:53:16;14.60;99.90
46364;DHT22;32071;49.036;9.344;2022-10-16T04:55:42;14.60;99.90
46364;DHT22;32071;49.036;9.344;2022-10-16T04:58:07;14.60;99.90
46364;DHT22;32071;49.036;9.344;2022-10-16T05:00:34;14.60;99.90
46364;DHT22;32071;49.036;9.344;2022-10-16T05:03:00;14.50;99.90
46364;DHT22;32071;49.036;9.344;2022-10-16T05:05:27;14.50;99.90
46364;DHT22;32071;49.036;9.344;2022-10-16T05:07:52;14.50;99.90
46364;DHT22;32071;49.036;9.344;2022-10-16T05:10:18;14.60;99.90
46364;DHT22;32071;49.036;9.344;2022-10-16T05:12:44;14.50;99.90
46364;DHT22;32071;49.036;9.344;2022-10-16T05:15:10;14.50;99.90
46364;DHT22;32071;49.036;9.344;2022-10-16T05:17:35;14.50;99.90
46364;DHT22;32071;49.036;9.344;2022-10-16T05:20:01;14.50;99.90
46364;DHT22;32071;49.036;9.344;2022-10-16T05:22:28;14.50;99.90
46364;DHT22;32071;49.036;9.344;2022-10-16T05:24:54;14.50;99.90
46364;DHT22;32071;49.036;9.344;2022-10-16T05:27:20;14.50;99.90
46364;DHT22;32071;49.036;9.344;2022-10-16T05:29:46;14.50;99.90
46364;DHT22;32071;49.036;9.344;2022-10-16T05:32:13;14.50;99.90
46364;DHT22;32071;49.036;9.344;2022-10-16T05:34:38;14.50;99.90
46364;DHT22;32071;49.036;9.344;2022-10-16T05:37:04;14.50;99.90
46364;DHT22;32071;49.036;9.344;2022-10-16T05:39:30;14.50;99.90
46364;DHT22;32071;49.036;9.344;2022-10-16T05:41:55;14.50;99.90
46364;DHT22;32071;49.036;9.344;2022-10-16T05:44:21;14.50;99.90
46364;DHT22;32071;49.036;9.344;2022-10-16T05:46:47;14.50;99.90
46364;DHT22;32071;49.036;9.344;2022-10-16T05:49:12;14.50;99.90
46364;DHT22;32071;49.036;9.344;2022-10-16T05:51:38;14.50;99.90
46364;DHT22;32071;49.036;9.344;2022-10-16T05:54:03;14.50;99.90
46364;DHT22;32071;49.036;9.344;2022-10-16T05:56:29;14.50;99.90
46364;DHT22;32071;49.036;9.344;2022-10-16T05:58:55;14.50;99.90
46364;DHT22;32071;49.036;9.344;2022-10-16T06:01:20;14.50;99.90
46364;DHT22;32071;49.036;9.344;2022-10-16T06:03:52;14.50;99.90
46364;DHT22;32071;49.036;9.344;2022-10-16T06:06:22;14.50;99.90
46364;DHT22;32071;49.036;9.344;2022-10-16T06:08:49;14.60;99.90
46364;DHT22;32071;49.036;9.344;2022-10-16T06:11:17;14.60;99.90
46364;DHT22;32071;49.036;9.344;2022-10-16T06:13:43;14.60;99.90
46364;DHT22;32071;49.036;9.344;2022-10-16T06:16:11;14.60;99.90
46364;DHT22;32071;49.036;9.344;2022-10-16T06:18:37;14.60;99.90
46364;DHT22;32071;49.036;9.344;2022-10-16T06:21:11;14.60;99.90
46364;DHT22;32071;49.036;9.344;2022-10-16T06:23:37;14.60;99.90
46364;DHT22;32071;49.036;9.344;2022-10-16T06:26:07;14.60;99.90
46364;DHT22;32071;49.036;9.344;2022-10-16T06:28:32;14.60;99.90
46364;DHT22;32071;49.036;9.344;2022-10-16T06:30:59;14.60;99.90
46364;DHT22;32071;49.036;9.344;2022-10-16T06:33:25;14.70;99.90
46364;DHT22;32071;49.036;9.344;2022-10-16T06:35:51;14.70;99.90
46364;DHT22;32071;49.036;9.344;2022-10-16T06:38:16;14.70;99.90
46364;DHT22;32071;49.036;9.344;2022-10-16T06:40:42;14.70;99.90
46364;DHT22;32071;49.036;9.344;2022-10-16T06:43:08;14.80;99.90
46364;DHT22;32071;49.036;9.344;2022-10-16T06:45:33;14.80;99.90
46364;DHT22;32071;49.036;9.344;2022-10-16T06:47:59;14.90;99.90
46364;DHT22;32071;49.036;9.344;2022-10-16T06:50:24;14.90;99.90
46364;DHT22;32071;49.036;9.344;2022-10-16T06:52:50;15.00;99.90
46364;DHT22;32071;49.036;9.344;2022-10-16T06:55:15;15.00;99.90
46364;DHT22;32071;49.036;9.344;2022-10-16T06:57:42;15.10;99.90
46364;DHT22;32071;49.036;9.344;2022-10-16T07:00:09;15.20;99.90
46364;DHT22;32071;49.036;9.344;2022-10-16T07:02:34;15.30;99.90
46364;DHT22;32071;49.036;9.344;2022-10-16T07:05:00;15.30;99.90
46364;DHT22;32071;49.036;9.344;2022-10-16T07:07:26;15.30;99.90
46364;DHT22;32071;49.036;9.344;2022-10-16T07:09:52;15.40;99.90
46364;DHT22;32071;49.036;9.344;2022-10-16T07:12:17;15.40;99.90
46364;DHT22;32071;49.036;9.344;2022-10-16T07:14:43;15.40;99.90
46364;DHT22;32071;49.036;9.344;2022-10-16T07:17:09;15.50;99.90
46364;DHT22;32071;49.036;9.344;2022-10-16T07:19:34;15.60;99.90
46364;DHT22;32071;49.036;9.344;2022-10-16T07:22:00;15.60;99.90
46364;DHT22;32071;49.036;9.344;2022-10-16T07:24:26;15.70;99.90
46364;DHT22;32071;49.036;9.344;2022-10-16T07:26:52;15.70;99.90
46364;DHT22;32071;49.036;9.344;2022-10-16T07:29:20;15.70;99.90
46364;DHT22;32071;49.036;9.344;2022-10-16T07:31:46;15.80;99.90
46364;DHT22;32071;49.036;9.344;2022-10-16T07:34:13;15.70;99.90
46364;DHT22;32071;49.036;9.344;2022-10-16T07:36:39;15.70;99.90
46364;DHT22;32071;49.036;9.344;2022-10-16T07:39:04;15.70;99.90
46364;DHT22;32071;49.036;9.344;2022-10-16T07:41:30;15.70;99.90
46364;DHT22;32071;49.036;9.344;2022-10-16T07:43:58;15.70;99.90
46364;DHT22;32071;49.036;9.344;2022-10-16T07:46:26;15.70;99.90
46364;DHT22;32071;49.036;9.344;2022-10-16T07:48:52;15.70;99.90
46364;DHT22;32071;49.036;9.344;2022-10-16T07:51:22;15.70;99.90
46364;DHT22;32071;49.036;9.344;2022-10-16T07:53:48;15.70;99.90
46364;DHT22;32071;49.036;9.344;2022-10-16T07:56:15;15.80;99.90
46364;DHT22;32071;49.036;9.344;2022-10-16T07:58:41;15.80;99.90
46364;DHT22;32071;49.036;9.344;2022-10-16T08:01:10;15.80;99.90
46364;DHT22;32071;49.036;9.344;2022-10-16T08:03:35;15.80;99.90
46364;DHT22;32071;49.036;9.344;2022-10-16T08:06:01;15.80;99.90
46364;DHT22;32071;49.036;9.344;2022-10-16T08:08:27;15.80;99.90
46364;DHT22;32071;49.036;9.344;2022-10-16T08:10:53;15.90;99.90
46364;DHT22;32071;49.036;9.344;2022-10-16T08:13:19;16.00;99.90
46364;DHT22;32071;49.036;9.344;2022-10-16T08:15:46;16.10;99.90
46364;DHT22;32071;49.036;9.344;2022-10-16T08:18:13;16.30;99.90
46364;DHT22;32071;49.036;9.344;2022-10-16T08:20:39;16.40;99.90
46364;DHT22;32071;49.036;9.344;2022-10-16T08:23:05;16.60;99.90
46364;DHT22;32071;49.036;9.344;2022-10-16T08:25:34;16.70;99.90
46364;DHT22;32071;49.036;9.344;2022-10-16T08:28:00;16.70;99.90
46364;DHT22;32071;49.036;9.344;2022-10-16T08:30:28;16.80;99.90
46364;DHT22;32071;49.036;9.344;2022-10-16T08:32:53;16.90;99.90
46364;DHT22;32071;49.036;9.344;2022-10-16T08:35:19;17.00;99.90
46364;DHT22;32071;49.036;9.344;2022-10-16T08:37:45;17.00;99.90
46364;DHT22;32071;49.036;9.344;2022-10-16T08:40:18;17.00;99.90
46364;DHT22;32071;49.036;9.344;2022-10-16T08:43:00;17.20;99.90
46364;DHT22;32071;49.036;9.344;2022-10-16T08:48:30;17.80;99.90
46364;DHT22;32071;49.036;9.344;2022-10-16T08:51:02;17.90;99.90
46364;DHT22;32071;49.036;9.344;2022-10-16T08:53:36;18.00;99.90
46364;DHT22;32071;49.036;9.344;2022-10-16T08:56:03;18.20;99.90
46364;DHT22;32071;49.036;9.344;2022-10-16T08:58:30;18.40;99.90
46364;DHT22;32071;49.036;9.344;2022-10-16T09:00:57;18.50;99.90
46364;DHT22;32071;49.036;9.344;2022-10-16T09:11:34;18.70;99.90
46364;DHT22;32071;49.036;9.344;2022-10-16T09:16:58;18.60;99.90
46364;DHT22;32071;49.036;9.344;2022-10-16T09:19:40;18.60;99.90
46364;DHT22;32071;49.036;9.344;2022-10-16T09:22:14;18.50;99.90
46364;DHT22;32071;49.036;9.344;2022-10-16T09:24:41;18.50;99.90
46364;DHT22;32071;49.036;9.344;2022-10-16T09:27:10;18.50;99.90
46364;DHT22;32071;49.036;9.344;2022-10-16T09:29:36;18.50;99.90
46364;DHT22;32071;49.036;9.344;2022-10-16T09:32:17;18.50;99.90
46364;DHT22;32071;49.036;9.344;2022-10-16T09:34:52;18.50;99.90
46364;DHT22;32071;49.036;9.344;2022-10-16T09:37:22;18.50;99.90
46364;DHT22;32071;49.036;9.344;2022-10-16T09:39:51;18.50;99.90
46364;DHT22;32071;49.036;9.344;2022-10-16T09:42:18;18.50;99.90
46364;DHT22;32071;49.036;9.344;2022-10-16T09:44:49;18.60;99.90
46364;DHT22;32071;49.036;9.344;2022-10-16T09:47:18;18.70;99.90
46364;DHT22;32071;49.036;9.344;2022-10-16T09:50:25;18.70;99.90
46364;DHT22;32071;49.036;9.344;2022-10-16T09:53:03;18.80;99.90
46364;DHT22;32071;49.036;9.344;2022-10-16T09:55:29;18.90;99.90
46364;DHT22;32071;49.036;9.344;2022-10-16T09:57:55;19.10;99.90
46364;DHT22;32071;49.036;9.344;2022-10-16T10:00:23;19.40;99.90
46364;DHT22;32071;49.036;9.344;2022-10-16T10:02:49;19.50;99.90
46364;DHT22;32071;49.036;9.344;2022-10-16T10:05:28;19.70;99.90
46364;DHT22;32071;49.036;9.344;2022-10-16T10:07:57;19.70;99.90
46364;DHT22;32071;49.036;9.344;2022-10-16T10:10:27;19.90;99.90
46364;DHT22;32071;49.036;9.344;2022-10-16T10:12:54;20.00;99.90
46364;DHT22;32071;49.036;9.344;2022-10-16T10:15:21;19.90;99.90
46364;DHT22;32071;49.036;9.344;2022-10-16T10:17:54;19.80;99.90
46364;DHT22;32071;49.036;9.344;2022-10-16T10:20:31;19.80;99.90
46364;DHT22;32071;49.036;9.344;2022-10-16T10:23:00;19.80;99.90
46364;DHT22;32071;49.036;9.344;2022-10-16T10:37:29;20.70;99.90
46364;DHT22;32071;49.036;9.344;2022-10-16T10:45:47;21.20;99.90
46364;DHT22;32071;49.036;9.344;2022-10-16T10:48:21;21.30;99.90
46364;DHT22;32071;49.036;9.344;2022-10-16T10:51:01;21.40;99.90
46364;DHT22;32071;49.036;9.344;2022-10-16T10:58:59;21.20;99.90
46364;DHT22;32071;49.036;9.344;2022-10-16T11:01:47;21.30;99.90
46364;DHT22;32071;49.036;9.344;2022-10-16T11:07:23;21.70;99.90
46364;DHT22;32071;49.036;9.344;2022-10-16T11:09:55;21.90;99.90
46364;DHT22;32071;49.036;9.344;2022-10-16T11:12:29;21.80;99.90
46364;DHT22;32071;49.036;9.344;2022-10-16T11:15:14;21.90;99.90
46364;DHT22;32071;49.036;9.344;2022-10-16T11:20:28;22.10;99.90
46364;DHT22;32071;49.036;9.344;2022-10-16T11:22:58;22.00;99.90
46364;DHT22;32071;49.036;9.344;2022-10-16T11:25:32;21.90;99.90
46364;DHT22;32071;49.036;9.344;2022-10-16T11:28:27;21.80;99.90
46364;DHT22;32071;49.036;9.344;2022-10-16T11:31:10;21.70;99.90
46364;DHT22;32071;49.036;9.344;2022-10-16T11:36:28;21.30;99.90
46364;DHT22;32071;49.036;9.344;2022-10-16T11:39:26;21.30;99.90
46364;DHT22;32071;49.036;9.344;2022-10-16T11:41:53;21.10;99.90
46364;DHT22;32071;49.036;9.344;2022-10-16T11:50:26;21.30;99.90
46364;DHT22;32071;49.036;9.344;2022-10-16T11:55:41;21.60;99.90
46364;DHT22;32071;49.036;9.344;2022-10-16T12:08:49;22.60;99.90
46364;DHT22;32071;49.036;9.344;2022-10-16T12:13:49;23.00;99.90
46364;DHT22;32071;49.036;9.344;2022-10-16T12:18:45;23.20;99.90
46364;DHT22;32071;49.036;9.344;2022-10-16T12:21:12;23.30;99.90
46364;DHT22;32071;49.036;9.344;2022-10-16T12:23:49;23.30;99.90
46364;DHT22;32071;49.036;9.344;2022-10-16T12:26:31;23.50;99.90
46364;DHT22;32071;49.036;9.344;2022-10-16T12:31:48;23.00;99.90
46364;DHT22;32071;49.036;9.344;2022-10-16T12:34:43;23.10;99.90
46364;DHT22;32071;49.036;9.344;2022-10-16T12:37:19;23.00;99.90
46364;DHT22;32071;49.036;9.344;2022-10-16T12:39:47;22.90;99.90
46364;DHT22;32071;49.036;9.344;2022-10-16T12:42:32;22.80;99.90
46364;DHT22;32071;49.036;9.344;2022-10-16T12:44:59;22.80;99.90
46364;DHT22;32071;49.036;9.344;2022-10-16T12:49:57;22.90;99.90
46364;DHT22;32071;49.036;9.344;2022-10-16T12:54:58;23.30;99.90
46364;DHT22;32071;49.036;9.344;2022-10-16T13:01:26;23.30;99.90
46364;DHT22;32071;49.036;9.344;2022-10-16T13:09:02;23.80;99.90
46364;DHT22;32071;49.036;9.344;2022-10-16T13:14:35;23.80;99.90
46364;DHT22;32071;49.036;9.344;2022-10-16T13:20:28;23.50;99.90
46364;DHT22;32071;49.036;9.344;2022-10-16T13:28:29;23.30;99.90
46364;DHT22;32071;49.036;9.344;2022-10-16T13:31:00;23.20;99.90
46364;DHT22;32071;49.036;9.344;2022-10-16T13:35:58;22.90;99.90
46364;DHT22;32071;49.036;9.344;2022-10-16T13:38:26;22.80;99.90
46364;DHT22;32071;49.036;9.344;2022-10-16T13:41:00;22.80;99.90
46364;DHT22;32071;49.036;9.344;2022-10-16T13:43:35;22.70;99.90
46364;DHT22;32071;49.036;9.344;2022-10-16T13:46:06;22.60;99.90
46364;DHT22;32071;49.036;9.344;2022-10-16T13:48:33;22.50;99.90
46364;DHT22;32071;49.036;9.344;2022-10-16T13:51:06;22.30;99.90
46364;DHT22;32071;49.036;9.344;2022-10-16T13:53:34;22.20;99.90
46364;DHT22;32071;49.036;9.344;2022-10-16T13:56:01;22.00;99.90
46364;DHT22;32071;49.036;9.344;2022-10-16T13:58:27;21.80;99.90
46364;DHT22;32071;49.036;9.344;2022-10-16T14:03:24;21.80;99.90
46364;DHT22;32071;49.036;9.344;2022-10-16T14:08:17;21.90;99.90
46364;DHT22;32071;49.036;9.344;2022-10-16T14:10:47;22.00;99.90
46364;DHT22;32071;49.036;9.344;2022-10-16T14:13:17;22.00;99.90
46364;DHT22;32071;49.036;9.344;2022-10-16T14:15:47;22.20;99.90
46364;DHT22;32071;49.036;9.344;2022-10-16T14:18:21;22.30;99.90
46364;DHT22;32071;49.036;9.344;2022-10-16T14:20:49;22.40;99.90
46364;DHT22;32071;49.036;9.344;2022-10-16T14:23:30;22.40;99.90
46364;DHT22;32071;49.036;9.344;2022-10-16T14:28:35;22.20;99.90
46364;DHT22;32071;49.036;9.344;2022-10-16T14:31:02;22.10;99.90
46364;DHT22;32071;49.036;9.344;2022-10-16T14:33:33;22.00;99.90
46364;DHT22;32071;49.036;9.344;2022-10-16T14:36:12;22.00;99.90
46364;DHT22;32071;49.036;9.344;2022-10-16T14:38:48;22.00;99.90
46364;DHT22;32071;49.036;9.344;2022-10-16T14:41:14;22.00;99.90
46364;DHT22;32071;49.036;9.344;2022-10-16T14:43:42;22.00;99.90
46364;DHT22;32071;49.036;9.344;2022-10-16T14:46:18;22.00;99.90
46364;DHT22;32071;49.036;9.344;2022-10-16T14:48:49;22.00;99.90
46364;DHT22;32071;49.036;9.344;2022-10-16T14:51:16;22.00;99.90
46364;DHT22;32071;49.036;9.344;2022-10-16T14:53:42;22.10;99.90
46364;DHT22;32071;49.036;9.344;2022-10-16T14:56:14;22.10;99.90
46364;DHT22;32071;49.036;9.344;2022-10-16T14:58:41;22.00;99.90
46364;DHT22;32071;49.036;9.344;2022-10-16T15:01:08;22.00;99.90
46364;DHT22;32071;49.036;9.344;2022-10-16T15:03:36;22.00;99.90
46364;DHT22;32071;49.036;9.344;2022-10-16T15:06:01;22.00;99.90
46364;DHT22;32071;49.036;9.344;2022-10-16T15:08:27;21.90;99.90
46364;DHT22;32071;49.036;9.344;2022-10-16T15:10:53;21.90;99.90
46364;DHT22;32071;49.036;9.344;2022-10-16T15:13:18;21.80;99.90
46364;DHT22;32071;49.036;9.344;2022-10-16T15:15:45;21.70;99.90
46364;DHT22;32071;49.036;9.344;2022-10-16T15:18:11;21.60;99.90
46364;DHT22;32071;49.036;9.344;2022-10-16T15:20:38;21.50;99.90
46364;DHT22;32071;49.036;9.344;2022-10-16T15:23:09;21.60;99.90
46364;DHT22;32071;49.036;9.344;2022-10-16T15:28:08;21.50;99.90
46364;DHT22;32071;49.036;9.344;2022-10-16T15:30:35;21.50;99.90
46364;DHT22;32071;49.036;9.344;2022-10-16T15:33:02;21.40;99.90
46364;DHT22;32071;49.036;9.344;2022-10-16T15:35:27;21.30;99.90
46364;DHT22;32071;49.036;9.344;2022-10-16T15:37:53;21.10;99.90
46364;DHT22;32071;49.036;9.344;2022-10-16T15:40:19;21.00;99.90
46364;DHT22;32071;49.036;9.344;2022-10-16T15:42:45;20.90;99.90
46364;DHT22;32071;49.036;9.344;2022-10-16T15:45:12;20.80;99.90
46364;DHT22;32071;49.036;9.344;2022-10-16T15:47:40;20.80;99.90
46364;DHT22;32071;49.036;9.344;2022-10-16T15:50:06;20.70;99.90
46364;DHT22;32071;49.036;9.344;2022-10-16T15:52:31;20.70;99.90
46364;DHT22;32071;49.036;9.344;2022-10-16T15:54:58;20.50;99.90
46364;DHT22;32071;49.036;9.344;2022-10-16T15:57:24;20.50;99.90
46364;DHT22;32071;49.036;9.344;2022-10-16T15:59:50;20.50;99.90
46364;DHT22;32071;49.036;9.344;2022-10-16T16:02:15;20.40;99.90
46364;DHT22;32071;49.036;9.344;2022-10-16T16:04:41;20.30;99.90
46364;DHT22;32071;49.036;9.344;2022-10-16T16:07:07;20.20;99.90
46364;DHT22;32071;49.036;9.344;2022-10-16T16:09:33;20.10;99.90
46364;DHT22;32071;49.036;9.344;2022-10-16T16:11:59;20.00;99.90
46364;DHT22;32071;49.036;9.344;2022-10-16T16:14:26;19.90;99.90
46364;DHT22;32071;49.036;9.344;2022-10-16T16:16:56;19.60;99.90
46364;DHT22;32071;49.036;9.344;2022-10-16T16:19:22;19.50;99.90
46364;DHT22;32071;49.036;9.344;2022-10-16T16:21:49;19.30;99.90
46364;DHT22;32071;49.036;9.344;2022-10-16T16:24:14;19.20;99.90
46364;DHT22;32071;49.036;9.344;2022-10-16T16:26:40;19.00;99.90
46364;DHT22;32071;49.036;9.344;2022-10-16T16:29:12;18.90;99.90
46364;DHT22;32071;49.036;9.344;2022-10-16T16:31:38;18.80;99.90
46364;DHT22;32071;49.036;9.344;2022-10-16T16:34:05;18.70;99.90
46364;DHT22;32071;49.036;9.344;2022-10-16T16:36:30;18.60;99.90
46364;DHT22;32071;49.036;9.344;2022-10-16T16:38:56;18.50;99.90
46364;DHT22;32071;49.036;9.344;2022-10-16T16:41:24;18.40;99.90
46364;DHT22;32071;49.036;9.344;2022-10-16T16:43:51;18.30;99.90
46364;DHT22;32071;49.036;9.344;2022-10-16T16:46:17;18.30;99.90
46364;DHT22;32071;49.036;9.344;2022-10-16T16:48:43;18.20;99.90
46364;DHT22;32071;49.036;9.344;2022-10-16T16:51:12;18.10;99.90
46364;DHT22;32071;49.036;9.344;2022-10-16T16:53:46;18.10;99.90
46364;DHT22;32071;49.036;9.344;2022-10-16T16:56:12;18.10;99.90
46364;DHT22;32071;49.036;9.344;2022-10-16T16:58:38;18.00;99.90
46364;DHT22;32071;49.036;9.344;2022-10-16T17:01:04;17.90;99.90
46364;DHT22;32071;49.036;9.344;2022-10-16T17:03:33;17.90;99.90
46364;DHT22;32071;49.036;9.344;2022-10-16T17:08:25;17.70;99.90
46364;DHT22;32071;49.036;9.344;2022-10-16T17:10:51;17.60;99.90
46364;DHT22;32071;49.036;9.344;2022-10-16T17:13:21;17.50;99.90
46364;DHT22;32071;49.036;9.344;2022-10-16T17:15:48;17.50;99.90
46364;DHT22;32071;49.036;9.344;2022-10-16T17:18:14;17.40;99.90
46364;DHT22;32071;49.036;9.344;2022-10-16T17:20:39;17.30;99.90
46364;DHT22;32071;49.036;9.344;2022-10-16T17:23:05;17.30;99.90
46364;DHT22;32071;49.036;9.344;2022-10-16T17:25:31;17.20;99.90
46364;DHT22;32071;49.036;9.344;2022-10-16T17:27:57;17.10;99.90
46364;DHT22;32071;49.036;9.344;2022-10-16T17:30:25;17.00;99.90
46364;DHT22;32071;49.036;9.344;2022-10-16T17:32:51;17.00;99.90
46364;DHT22;32071;49.036;9.344;2022-10-16T17:35:16;16.90;99.90
46364;DHT22;32071;49.036;9.344;2022-10-16T17:37:42;16.90;99.90
46364;DHT22;32071;49.036;9.344;2022-10-16T17:40:09;16.90;99.90
46364;DHT22;32071;49.036;9.344;2022-10-16T17:42:34;16.80;99.90
46364;DHT22;32071;49.036;9.344;2022-10-16T17:45:00;16.70;99.90